sensor_id;sensor_type;location;lat;lon;timestamp;pressure;altitude;pressure_sealevel;temperature;humidity
36062;BME280;22123;52.412;20.970;2024-03-23T00:54:20;99823.41;;;7.72;100.00
36062;BME280;22123;52.412;20.970;2024-03-23T00:56:46;99797.34;;;7.49;100.00
36062;BME280;22123;52.412;20.970;2024-03-23T00:59:12;99828.13;;;7.70;100.00
36062;BME280;22123;52.412;20.970;2024-03-23T01:01:38;99786.63;;;7.41;100.00
36062;BME280;22123;52.412;20.970;2024-03-23T01:04:04;99829.47;;;7.65;100.00
36062;BME280;22123;52.412;20.970;2024-03-23T01:06:29;99814.22;;;7.66;100.00
36062;BME280;22123;52.412;20.970;2024-03-23T01:08:55;99829.47;;;7.65;100.00
36062;BME280;22123;52.412;20.970;2024-03-23T01:11:21;99778.59;;;7.41;100.00
36062;BME280;22123;52.412;20.970;2024-03-23T01:13:47;99784.59;;;7.51;100.00
36062;BME280;22123;52.412;20.970;2024-03-23T01:16:13;99811.53;;;7.66;100.00
36062;BME280;22123;52.412;20.970;2024-03-23T01:18:39;99812.56;;;7.65;100.00
36062;BME280;22123;52.412;20.970;2024-03-23T01:21:05;99778.41;;;7.42;100.00
36062;BME280;22123;52.412;20.970;2024-03-23T01:23:31;99787.63;;;7.48;100.00
36062;BME280;22123;52.412;20.970;2024-03-23T01:25:56;99777.59;;;7.42;100.00
36062;BME280;22123;52.412;20.970;2024-03-23T01:28:22;99804.69;;;7.55;100.00
36062;BME280;22123;52.412;20.970;2024-03-23T01:30:48;99827.47;;;7.59;100.00
36062;BME280;22123;52.412;20.970;2024-03-23T01:33:16;99820.75;;;7.55;100.00
36062;BME280;22123;52.412;20.970;2024-03-23T01:35:41;99777.75;;;7.40;100.00
36062;BME280;22123;52.412;20.970;2024-03-23T01:38:07;99757.84;;;7.35;100.00
36062;BME280;22123;52.412;20.970;2024-03-23T01:40:33;99789.13;;;7.51;100.00
36062;BME280;22123;52.412;20.970;2024-03-23T01:43:04;99800.69;;;7.59;100.00
36062;BME280;22123;52.412;20.970;2024-03-23T01:45:34;99776.72;;;7.41;100.00
36062;BME280;22123;52.412;20.970;2024-03-23T01:48:00;99785.75;;;7.65;100.00
36062;BME280;22123;52.412;20.970;2024-03-23T01:50:27;99736.59;;;7.33;100.00
36062;BME280;22123;52.412;20.970;2024-03-23T01:52:53;99759.66;;;7.42;100.00
36062;BME280;22123;52.412;20.970;2024-03-23T01:55:19;99794.97;;;7.62;100.00
36062;BME280;22123;52.412;20.970;2024-03-23T01:57:45;99763.34;;;7.41;100.00
36062;BME280;22123;52.412;20.970;2024-03-23T02:00:12;99790.47;;;7.55;100.00
36062;BME280;22123;52.412;20.970;2024-03-23T02:02:44;99747.31;;;7.33;100.00
36062;BME280;22123;52.412;20.970;2024-03-23T02:05:13;99747.31;;;7.33;100.00
36062;BME280;22123;52.412;20.970;2024-03-23T02:07:40;99757.69;;;7.36;100.00
36062;BME280;22123;52.412;20.970;2024-03-23T02:10:07;99787.94;;;7.61;100.00
36062;BME280;22123;52.412;20.970;2024-03-23T02:12:33;99753.50;;;7.42;100.00
36062;BME280;22123;52.412;20.970;2024-03-23T02:15:00;99774.22;;;7.56;100.00
36062;BME280;22123;52.412;20.970;2024-03-23T02:17:26;99782.41;;;7.63;100.00
36062;BME280;22123;52.412;20.970;2024-03-23T02:19:52;99743.94;;;7.39;100.00
36062;BME280;22123;52.412;20.970;2024-03-23T02:22:18;99730.22;;;7.34;100.00
36062;BME280;22123;52.412;20.970;2024-03-23T02:24:44;99780.59;;;7.63;100.00
36062;BME280;22123;52.412;20.970;2024-03-23T02:27:10;99736.38;;;7.43;100.00
36062;BME280;22123;52.412;20.970;2024-03-23T02:29:36;99764.34;;;7.65;100.00
36062;BME280;22123;52.412;20.970;2024-03-23T02:32:01;99736.72;;;7.48;100.00
36062;BME280;22123;52.412;20.970;2024-03-23T02:34:27;99753.44;;;7.58;100.00
36062;BME280;22123;52.412;20.970;2024-03-23T02:36:53;99685.25;;;7.21;100.00
36062;BME280;22123;52.412;20.970;2024-03-23T02:39:19;99725.38;;;7.46;100.00
36062;BME280;22123;52.412;20.970;2024-03-23T02:41:45;99762.47;;;7.65;100.00
36062;BME280;22123;52.412;20.970;2024-03-23T02:44:11;99726.38;;;7.53;100.00
36062;BME280;22123;52.412;20.970;2024-03-23T02:46:38;99751.25;;;7.70;100.00
36062;BME280;22123;52.412;20.970;2024-03-23T02:49:03;99718.63;;;7.50;100.00
36062;BME280;22123;52.412;20.970;2024-03-23T02:51:29;99717.16;;;7.47;100.00
36062;BME280;22123;52.412;20.970;2024-03-23T02:53:55;99726.84;;;7.57;100.00
36062;BME280;22123;52.412;20.970;2024-03-23T02:56:21;99718.63;;;7.50;100.00
36062;BME280;22123;52.412;20.970;2024-03-23T02:58:47;99718.47;;;7.52;100.00
36062;BME280;22123;52.412;20.970;2024-03-23T03:01:13;99725.00;;;7.57;100.00
36062;BME280;22123;52.412;20.970;2024-03-23T03:03:39;99702.91;;;7.47;100.00
36062;BME280;22123;52.412;20.970;2024-03-23T03:06:05;99705.06;;;7.52;100.00
36062;BME280;22123;52.412;20.970;2024-03-23T03:08:31;99694.91;;;7.39;100.00
36062;BME280;22123;52.412;20.970;2024-03-23T03:10:57;99728.34;;;7.59;100.00
36062;BME280;22123;52.412;20.970;2024-03-23T03:13:23;99731.03;;;7.68;100.00
36062;BME280;22123;52.412;20.970;2024-03-23T03:15:48;99693.88;;;7.48;100.00
36062;BME280;22123;52.412;20.970;2024-03-23T03:18:14;99685.50;;;7.43;100.00
36062;BME280;22123;52.412;20.970;2024-03-23T03:20:40;99719.97;;;7.62;100.00
36062;BME280;22123;52.412;20.970;2024-03-23T03:23:07;99736.50;;;7.74;100.00
36062;BME280;22123;52.412;20.970;2024-03-23T03:25:33;99739.53;;;7.79;100.00
36062;BME280;22123;52.412;20.970;2024-03-23T03:27:59;99735.81;;;7.80;100.00
36062;BME280;22123;52.412;20.970;2024-03-23T03:30:25;99674.47;;;7.46;100.00
36062;BME280;22123;52.412;20.970;2024-03-23T03:32:53;99720.59;;;7.73;100.00
36062;BME280;22123;52.412;20.970;2024-03-23T03:35:19;99692.72;;;7.51;100.00
36062;BME280;22123;52.412;20.970;2024-03-23T03:37:45;99689.00;;;7.52;100.00
36062;BME280;22123;52.412;20.970;2024-03-23T03:40:12;99668.31;;;7.37;100.00
36062;BME280;22123;52.412;20.970;2024-03-23T03:42:38;99710.75;;;7.65;100.00
36062;BME280;22123;52.412;20.970;2024-03-23T03:45:04;99681.50;;;7.47;100.00
36062;BME280;22123;52.412;20.970;2024-03-23T03:47:30;99707.75;;;7.60;100.00
36062;BME280;22123;52.412;20.970;2024-03-23T03:49:56;99737.50;;;7.81;100.00
36062;BME280;22123;52.412;20.970;2024-03-23T03:52:22;99688.81;;;7.61;100.00
36062;BME280;22123;52.412;20.970;2024-03-23T03:54:48;99691.03;;;7.58;100.00
36062;BME280;22123;52.412;20.970;2024-03-23T03:57:14;99699.00;;;7.66;100.00
36062;BME280;22123;52.412;20.970;2024-03-23T03:59:40;99712.09;;;7.69;100.00
36062;BME280;22123;52.412;20.970;2024-03-23T04:02:05;99696.19;;;7.68;100.00
36062;BME280;22123;52.412;20.970;2024-03-23T04:04:31;99676.78;;;7.57;100.00
36062;BME280;22123;52.412;20.970;2024-03-23T04:07:01;99686.81;;;7.63;100.00
36062;BME280;22123;52.412;20.970;2024-03-23T04:09:27;99695.50;;;7.74;100.00
36062;BME280;22123;52.412;20.970;2024-03-23T04:11:53;99712.50;;;7.89;100.00
36062;BME280;22123;52.412;20.970;2024-03-23T04:14:19;99708.81;;;7.90;100.00
36062;BME280;22123;52.412;20.970;2024-03-23T04:16:45;99675.59;;;7.68;100.00
36062;BME280;22123;52.412;20.970;2024-03-23T04:19:11;99660.38;;;7.60;100.00
36062;BME280;22123;52.412;20.970;2024-03-23T04:21:37;99685.25;;;7.77;100.00
36062;BME280;22123;52.412;20.970;2024-03-23T04:24:04;99685.25;;;7.77;100.00
36062;BME280;22123;52.412;20.970;2024-03-23T04:26:30;99704.44;;;7.97;100.00
36062;BME280;22123;52.412;20.970;2024-03-23T04:28:55;99664.00;;;7.76;100.00
36062;BME280;22123;52.412;20.970;2024-03-23T04:31:21;99689.59;;;7.87;100.00
36062;BME280;22123;52.412;20.970;2024-03-23T04:33:47;99648.78;;;7.68;100.00
36062;BME280;22123;52.412;20.970;2024-03-23T04:36:13;99664.31;;;7.81;100.00
36062;BME280;22123;52.412;20.970;2024-03-23T04:38:39;99664.13;;;7.82;100.00
36062;BME280;22123;52.412;20.970;2024-03-23T04:41:05;99688.00;;;8.00;100.00
36062;BME280;22123;52.412;20.970;2024-03-23T04:43:31;99683.31;;;8.03;100.00
36062;BME280;22123;52.412;20.970;2024-03-23T04:45:58;99647.38;;;7.80;100.00
36062;BME280;22123;52.412;20.970;2024-03-23T04:48:24;99668.63;;;7.90;100.00
36062;BME280;22123;52.412;20.970;2024-03-23T04:50:54;99670.28;;;7.91;100.00
36062;BME280;22123;52.412;20.970;2024-03-23T04:53:20;99682.66;;;8.00;100.00
36062;BME280;22123;52.412;20.970;2024-03-23T04:55:46;99661.09;;;7.94;100.00
36062;BME280;22123;52.412;20.970;2024-03-23T04:58:12;99650.53;;;7.92;100.00
36062;BME280;22123;52.412;20.970;2024-03-23T05:00:38;99634.66;;;7.82;100.00
36062;BME280;22123;52.412;20.970;2024-03-23T05:03:04;99615.06;;;7.82;100.00
36062;BME280;22123;52.412;20.970;2024-03-23T05:05:30;99657.97;;;8.05;100.00
36062;BME280;22123;52.412;20.970;2024-03-23T05:07:56;99626.91;;;7.88;100.00
36062;BME280;22123;52.412;20.970;2024-03-23T05:10:22;99643.47;;;7.99;100.00
36062;BME280;22123;52.412;20.970;2024-03-23T05:12:48;99610.66;;;7.89;100.00
36062;BME280;22123;52.412;20.970;2024-03-23T05:15:13;99603.50;;;7.81;100.00
36062;BME280;22123;52.412;20.970;2024-03-23T05:17:40;99672.69;;;8.17;100.00
36062;BME280;22123;52.412;20.970;2024-03-23T05:20:06;99643.63;;;7.98;100.00
36062;BME280;22123;52.412;20.970;2024-03-23T05:22:32;99678.41;;;8.14;100.00
36062;BME280;22123;52.412;20.970;2024-03-23T05:24:57;99636.78;;;7.95;100.00
36062;BME280;22123;52.412;20.970;2024-03-23T05:27:23;99628.25;;;7.92;100.00
36062;BME280;22123;52.412;20.970;2024-03-23T05:29:49;99616.88;;;7.90;100.00
36062;BME280;22123;52.412;20.970;2024-03-23T05:32:15;99646.94;;;8.08;100.00
36062;BME280;22123;52.412;20.970;2024-03-23T05:34:41;99621.88;;;7.93;100.00
36062;BME280;22123;52.412;20.970;2024-03-23T05:37:07;99626.19;;;8.02;100.00
36062;BME280;22123;52.412;20.970;2024-03-23T05:39:33;99622.84;;;8.00;100.00
36062;BME280;22123;52.412;20.970;2024-03-23T05:41:58;99624.72;;;7.99;100.00
36062;BME280;22123;52.412;20.970;2024-03-23T05:44:24;99648.72;;;8.16;100.00
36062;BME280;22123;52.412;20.970;2024-03-23T05:46:50;99639.78;;;8.24;100.00
36062;BME280;22123;52.412;20.970;2024-03-23T05:49:16;99640.66;;;8.24;100.00
36062;BME280;22123;52.412;20.970;2024-03-23T05:51:42;99639.44;;;8.27;100.00
36062;BME280;22123;52.412;20.970;2024-03-23T05:54:08;99629.25;;;8.22;100.00
36062;BME280;22123;52.412;20.970;2024-03-23T05:56:35;99637.28;;;8.22;100.00
36062;BME280;22123;52.412;20.970;2024-03-23T05:59:00;99595.88;;;8.01;100.00
36062;BME280;22123;52.412;20.970;2024-03-23T06:01:26;99593.31;;;8.08;100.00
36062;BME280;22123;52.412;20.970;2024-03-23T06:03:52;99597.78;;;8.16;100.00
36062;BME280;22123;52.412;20.970;2024-03-23T06:06:18;99633.31;;;8.41;100.00
36062;BME280;22123;52.412;20.970;2024-03-23T06:08:44;99615.97;;;8.29;100.00
36062;BME280;22123;52.412;20.970;2024-03-23T06:11:10;99621.16;;;8.30;100.00
36062;BME280;22123;52.412;20.970;2024-03-23T06:13:36;99601.78;;;8.20;100.00
36062;BME280;22123;52.412;20.970;2024-03-23T06:16:02;99593.44;;;8.15;100.00
36062;BME280;22123;52.412;20.970;2024-03-23T06:18:28;99593.78;;;8.12;100.00
36062;BME280;22123;52.412;20.970;2024-03-23T06:20:54;99606.47;;;8.18;100.00
36062;BME280;22123;52.412;20.970;2024-03-23T06:23:20;99591.66;;;8.07;100.00
36062;BME280;22123;52.412;20.970;2024-03-23T06:25:46;99603.34;;;8.14;100.00
36062;BME280;22123;52.412;20.970;2024-03-23T06:28:12;99632.66;;;8.39;100.00
36062;BME280;22123;52.412;20.970;2024-03-23T06:30:38;99587.03;;;8.24;100.00
36062;BME280;22123;52.412;20.970;2024-03-23T06:33:04;99618.38;;;8.47;100.00
36062;BME280;22123;52.412;20.970;2024-03-23T06:35:30;99597.63;;;8.41;100.00
36062;BME280;22123;52.412;20.970;2024-03-23T06:37:55;99610.28;;;8.55;100.00
36062;BME280;22123;52.412;20.970;2024-03-23T06:40:21;99572.34;;;8.35;100.00
36062;BME280;22123;52.412;20.970;2024-03-23T06:42:50;99612.31;;;8.53;100.00
36062;BME280;22123;52.412;20.970;2024-03-23T06:45:16;99570.84;;;8.32;100.00
36062;BME280;22123;52.412;20.970;2024-03-23T06:47:42;99559.91;;;8.19;100.00
36062;BME280;22123;52.412;20.970;2024-03-23T06:50:08;99603.47;;;8.44;100.00
36062;BME280;22123;52.412;20.970;2024-03-23T06:52:34;99566.06;;;8.19;100.00
36062;BME280;22123;52.412;20.970;2024-03-23T06:55:00;99603.31;;;8.46;100.00
36062;BME280;22123;52.412;20.970;2024-03-23T06:57:26;99554.16;;;8.22;100.00
36062;BME280;22123;52.412;20.970;2024-03-23T06:59:52;99597.03;;;8.53;100.00
36062;BME280;22123;52.412;20.970;2024-03-23T07:02:18;99596.31;;;8.60;100.00
36062;BME280;22123;52.412;20.970;2024-03-23T07:04:44;99548.25;;;8.27;100.00
36062;BME280;22123;52.412;20.970;2024-03-23T07:07:10;99568.28;;;8.47;100.00
36062;BME280;22123;52.412;20.970;2024-03-23T07:09:36;99545.84;;;8.40;100.00
36062;BME280;22123;52.412;20.970;2024-03-23T07:12:01;99560.31;;;8.54;100.00
36062;BME280;22123;52.412;20.970;2024-03-23T07:14:27;99562.16;;;8.53;100.00
36062;BME280;22123;52.412;20.970;2024-03-23T07:16:53;99583.78;;;8.75;100.00
36062;BME280;22123;52.412;20.970;2024-03-23T07:19:19;99572.47;;;8.65;100.00
36062;BME280;22123;52.412;20.970;2024-03-23T07:21:45;99580.25;;;8.75;100.00
36062;BME280;22123;52.412;20.970;2024-03-23T07:24:11;99569.41;;;8.68;100.00
36062;BME280;22123;52.412;20.970;2024-03-23T07:26:37;99536.84;;;8.56;100.00
36062;BME280;22123;52.412;20.970;2024-03-23T07:29:05;99518.50;;;8.45;100.00
36062;BME280;22123;52.412;20.970;2024-03-23T07:31:31;99536.47;;;8.59;100.00
36062;BME280;22123;52.412;20.970;2024-03-23T07:33:57;99546.00;;;8.62;100.00
36062;BME280;22123;52.412;20.970;2024-03-23T07:36:23;99574.53;;;8.78;100.00
36062;BME280;22123;52.412;20.970;2024-03-23T07:38:48;99562.19;;;8.68;100.00
36062;BME280;22123;52.412;20.970;2024-03-23T07:41:16;99526.53;;;8.45;100.00
36062;BME280;22123;52.412;20.970;2024-03-23T07:43:43;99567.56;;;8.68;100.00
36062;BME280;22123;52.412;20.970;2024-03-23T07:46:09;99566.06;;;8.66;100.00
36062;BME280;22123;52.412;20.970;2024-03-23T07:48:35;99548.44;;;8.48;100.00
36062;BME280;22123;52.412;20.970;2024-03-23T07:51:04;99562.09;;;8.62;100.00
36062;BME280;22123;52.412;20.970;2024-03-23T07:53:31;99559.94;;;8.57;100.00
36062;BME280;22123;52.412;20.970;2024-03-23T07:56:00;99535.94;;;8.41;100.00
36062;BME280;22123;52.412;20.970;2024-03-23T07:58:26;99513.72;;;8.32;100.00
36062;BME280;22123;52.412;20.970;2024-03-23T08:00:53;99477.50;;;8.13;100.00
36062;BME280;22123;52.412;20.970;2024-03-23T08:03:19;99501.13;;;8.32;100.00
36062;BME280;22123;52.412;20.970;2024-03-23T08:05:45;99533.97;;;8.58;100.00
36062;BME280;22123;52.412;20.970;2024-03-23T08:08:11;99496.06;;;8.38;100.00
36062;BME280;22123;52.412;20.970;2024-03-23T08:10:50;99478.66;;;8.33;100.00
36062;BME280;22123;52.412;20.970;2024-03-23T08:13:16;99483.28;;;8.40;100.00
36062;BME280;22123;52.412;20.970;2024-03-23T08:15:42;99480.44;;;8.41;100.00
36062;BME280;22123;52.412;20.970;2024-03-23T08:18:09;99523.88;;;8.75;100.00
36062;BME280;22123;52.412;20.970;2024-03-23T08:20:35;99500.41;;;8.62;100.00
36062;BME280;22123;52.412;20.970;2024-03-23T08:23:01;99474.00;;;8.50;100.00
36062;BME280;22123;52.412;20.970;2024-03-23T08:25:27;99470.84;;;8.47;100.00
36062;BME280;22123;52.412;20.970;2024-03-23T08:27:52;99504.28;;;8.74;100.00
36062;BME280;22123;52.412;20.970;2024-03-23T08:30:18;99505.47;;;8.72;100.00
36062;BME280;22123;52.412;20.970;2024-03-23T08:32:44;99496.41;;;8.73;100.00
36062;BME280;22123;52.412;20.970;2024-03-23T08:35:11;99495.78;;;8.70;100.00
36062;BME280;22123;52.412;20.970;2024-03-23T08:37:37;99457.63;;;8.60;100.00
36062;BME280;22123;52.412;20.970;2024-03-23T08:40:03;99460.16;;;8.77;100.00
36062;BME280;22123;52.412;20.970;2024-03-23T08:42:30;99478.28;;;9.04;100.00
36062;BME280;22123;52.412;20.970;2024-03-23T08:44:55;99397.94;;;8.73;100.00
36062;BME280;22123;52.412;20.970;2024-03-23T08:47:21;99431.00;;;9.25;100.00
36062;BME280;22123;52.412;20.970;2024-03-23T08:49:47;99425.81;;;9.38;100.00
36062;BME280;22123;52.412;20.970;2024-03-23T08:52:13;99453.78;;;9.87;100.00
36062;BME280;22123;52.412;20.970;2024-03-23T08:54:39;99444.41;;;10.05;100.00
36062;BME280;22123;52.412;20.970;2024-03-23T08:57:05;99412.47;;;10.17;100.00
36062;BME280;22123;52.412;20.970;2024-03-23T08:59:31;99424.53;;;10.49;100.00
36062;BME280;22123;52.412;20.970;2024-03-23T09:01:57;99391.78;;;10.87;100.00
36062;BME280;22123;52.412;20.970;2024-03-23T09:04:23;99429.28;;;11.37;100.00
36062;BME280;22123;52.412;20.970;2024-03-23T09:06:48;99426.84;;;11.49;100.00
36062;BME280;22123;52.412;20.970;2024-03-23T09:09:14;99429.97;;;11.66;100.00
36062;BME280;22123;52.412;20.970;2024-03-23T09:11:40;99402.78;;;11.47;100.00
36062;BME280;22123;52.412;20.970;2024-03-23T09:14:06;99391.91;;;11.21;100.00
36062;BME280;22123;52.412;20.970;2024-03-23T09:16:32;99423.66;;;11.25;100.00
36062;BME280;22123;52.412;20.970;2024-03-23T09:18:58;99401.78;;;10.93;100.00
36062;BME280;22123;52.412;20.970;2024-03-23T09:21:24;99419.41;;;11.03;100.00
36062;BME280;22123;52.412;20.970;2024-03-23T09:23:50;99395.97;;;10.90;100.00
36062;BME280;22123;52.412;20.970;2024-03-23T09:26:15;99367.75;;;10.79;100.00
36062;BME280;22123;52.412;20.970;2024-03-23T09:28:41;99384.28;;;10.69;100.00
36062;BME280;22123;52.412;20.970;2024-03-23T09:31:08;99356.28;;;10.64;100.00
36062;BME280;22123;52.412;20.970;2024-03-23T09:33:34;99368.53;;;10.66;100.00
36062;BME280;22123;52.412;20.970;2024-03-23T09:36:04;99390.53;;;10.83;100.00
36062;BME280;22123;52.412;20.970;2024-03-23T09:38:30;99358.97;;;10.64;100.00
36062;BME280;22123;52.412;20.970;2024-03-23T09:40:58;99388.44;;;10.78;100.00
36062;BME280;22123;52.412;20.970;2024-03-23T09:43:24;99372.84;;;10.67;100.00
36062;BME280;22123;52.412;20.970;2024-03-23T09:45:49;99376.34;;;10.61;100.00
36062;BME280;22123;52.412;20.970;2024-03-23T09:48:16;99368.44;;;10.53;100.00
36062;BME280;22123;52.412;20.970;2024-03-23T09:50:43;99389.41;;;10.64;100.00
36062;BME280;22123;52.412;20.970;2024-03-23T09:53:10;99372.00;;;10.60;100.00
36062;BME280;22123;52.412;20.970;2024-03-23T09:55:38;99352.88;;;10.48;100.00
36062;BME280;22123;52.412;20.970;2024-03-23T09:58:04;99347.97;;;10.58;100.00
36062;BME280;22123;52.412;20.970;2024-03-23T10:00:37;99330.59;;;10.54;100.00
36062;BME280;22123;52.412;20.970;2024-03-23T10:03:04;99308.00;;;10.55;100.00
36062;BME280;22123;52.412;20.970;2024-03-23T10:05:30;99336.19;;;11.28;100.00
36062;BME280;22123;52.412;20.970;2024-03-23T10:07:56;99289.97;;;12.11;100.00
36062;BME280;22123;52.412;20.970;2024-03-23T10:10:25;99294.72;;;13.52;100.00
36062;BME280;22123;52.412;20.970;2024-03-23T10:12:51;99285.22;;;14.49;100.00
36062;BME280;22123;52.412;20.970;2024-03-23T10:15:22;99256.59;;;14.90;100.00
36062;BME280;22123;52.412;20.970;2024-03-23T10:17:48;99268.47;;;15.85;100.00
36062;BME280;22123;52.412;20.970;2024-03-23T10:20:18;99290.75;;;16.23;100.00
36062;BME280;22123;52.412;20.970;2024-03-23T10:22:45;99245.66;;;16.10;100.00
36062;BME280;22123;52.412;20.970;2024-03-23T10:25:12;99279.72;;;16.53;100.00
36062;BME280;22123;52.412;20.970;2024-03-23T10:27:37;99229.91;;;17.05;100.00
36062;BME280;22123;52.412;20.970;2024-03-23T10:30:11;99258.19;;;17.89;100.00
36062;BME280;22123;52.412;20.970;2024-03-23T10:32:38;99233.84;;;18.88;100.00
36062;BME280;22123;52.412;20.970;2024-03-23T10:35:17;99224.22;;;19.40;100.00
36062;BME280;22123;52.412;20.970;2024-03-23T10:37:43;99199.59;;;20.20;100.00
36062;BME280;22123;52.412;20.970;2024-03-23T10:40:10;99179.19;;;20.38;100.00
36062;BME280;22123;52.412;20.970;2024-03-23T10:42:37;99234.66;;;21.53;100.00
36062;BME280;22123;52.412;20.970;2024-03-23T10:45:07;99216.19;;;22.05;100.00
36062;BME280;22123;52.412;20.970;2024-03-23T10:47:36;99237.41;;;21.59;100.00
36062;BME280;22123;52.412;20.970;2024-03-23T10:50:03;99184.09;;;20.36;100.00
36062;BME280;22123;52.412;20.970;2024-03-23T10:52:29;99210.78;;;21.02;100.00
36062;BME280;22123;52.412;20.970;2024-03-23T10:54:56;99192.97;;;20.79;100.00
36062;BME280;22123;52.412;20.970;2024-03-23T10:57:27;99171.69;;;21.23;100.00
36062;BME280;22123;52.412;20.970;2024-03-23T10:59:55;99184.00;;;21.41;100.00
36062;BME280;22123;52.412;20.970;2024-03-23T11:02:22;99179.34;;;21.41;100.00
36062;BME280;22123;52.412;20.970;2024-03-23T11:04:48;99174.69;;;21.00;100.00
36062;BME280;22123;52.412;20.970;2024-03-23T11:09:55;99188.06;;;19.60;100.00
36062;BME280;22123;52.412;20.970;2024-03-23T11:15:16;99182.13;;;17.99;100.00
36062;BME280;22123;52.412;20.970;2024-03-23T11:18:02;99189.28;;;17.88;100.00
36062;BME280;22123;52.412;20.970;2024-03-23T11:20:32;99180.97;;;18.89;100.00
36062;BME280;22123;52.412;20.970;2024-03-23T11:22:59;99162.25;;;19.03;100.00
36062;BME280;22123;52.412;20.970;2024-03-23T11:25:26;99176.63;;;18.66;100.00
36062;BME280;22123;52.412;20.970;2024-03-23T11:27:57;99167.44;;;18.22;100.00
36062;BME280;22123;52.412;20.970;2024-03-23T11:30:24;99163.75;;;18.12;100.00
36062;BME280;22123;52.412;20.970;2024-03-23T11:32:53;99134.34;;;18.63;100.00
36062;BME280;22123;52.412;20.970;2024-03-23T11:35:29;99161.03;;;19.58;100.00
36062;BME280;22123;52.412;20.970;2024-03-23T11:38:08;99155.06;;;18.64;100.00
36062;BME280;22123;52.412;20.970;2024-03-23T11:40:42;99135.47;;;17.73;100.00
36062;BME280;22123;52.412;20.970;2024-03-23T11:43:09;99144.63;;;17.11;100.00
36062;BME280;22123;52.412;20.970;2024-03-23T11:45:38;99146.19;;;16.90;100.00
36062;BME280;22123;52.412;20.970;2024-03-23T11:48:08;99144.63;;;16.48;100.00
36062;BME280;22123;52.412;20.970;2024-03-23T11:50:37;99131.25;;;15.89;100.00
36062;BME280;22123;52.412;20.970;2024-03-23T11:53:17;99133.97;;;15.54;100.00
36062;BME280;22123;52.412;20.970;2024-03-23T11:55:52;99123.38;;;15.28;100.00
36062;BME280;22123;52.412;20.970;2024-03-23T11:58:20;99116.31;;;15.04;100.00
36062;BME280;22123;52.412;20.970;2024-03-23T12:03:16;99088.59;;;14.48;100.00
36062;BME280;22123;52.412;20.970;2024-03-23T12:05:42;99106.53;;;14.60;100.00
36062;BME280;22123;52.412;20.970;2024-03-23T12:08:17;99086.22;;;14.39;100.00
36062;BME280;22123;52.412;20.970;2024-03-23T12:11:04;99105.38;;;14.26;100.00
36062;BME280;22123;52.412;20.970;2024-03-23T12:13:30;99088.03;;;14.15;100.00
36062;BME280;22123;52.412;20.970;2024-03-23T12:18:34;99057.53;;;13.78;100.00
36062;BME280;22123;52.412;20.970;2024-03-23T12:21:00;99076.97;;;13.86;100.00
36062;BME280;22123;52.412;20.970;2024-03-23T12:23:26;99035.75;;;13.54;100.00
36062;BME280;22123;52.412;20.970;2024-03-23T12:25:52;99012.16;;;13.24;100.00
36062;BME280;22123;52.412;20.970;2024-03-23T12:28:18;99066.47;;;13.41;100.00
36062;BME280;22123;52.412;20.970;2024-03-23T12:30:44;99023.53;;;13.08;100.00
36062;BME280;22123;52.412;20.970;2024-03-23T12:33:09;99031.66;;;13.08;100.00
36062;BME280;22123;52.412;20.970;2024-03-23T12:35:35;99058.47;;;13.28;100.00
36062;BME280;22123;52.412;20.970;2024-03-23T12:38:01;99058.09;;;13.24;100.00
36062;BME280;22123;52.412;20.970;2024-03-23T12:40:27;99055.69;;;13.16;100.00
36062;BME280;22123;52.412;20.970;2024-03-23T12:42:54;99033.22;;;12.97;100.00
36062;BME280;22123;52.412;20.970;2024-03-23T12:45:20;99025.03;;;12.85;100.00
36062;BME280;22123;52.412;20.970;2024-03-23T12:47:46;99013.28;;;12.73;100.00
36062;BME280;22123;52.412;20.970;2024-03-23T12:50:12;98987.41;;;12.65;100.00
36062;BME280;22123;52.412;20.970;2024-03-23T12:52:37;98998.91;;;12.79;100.00
36062;BME280;22123;52.412;20.970;2024-03-23T12:55:04;98985.09;;;12.68;100.00
36062;BME280;22123;52.412;20.970;2024-03-23T12:57:30;98975.41;;;12.61;100.00
36062;BME280;22123;52.412;20.970;2024-03-23T12:59:56;99020.41;;;12.92;100.00
36062;BME280;22123;52.412;20.970;2024-03-23T13:02:22;98990.44;;;12.75;100.00
36062;BME280;22123;52.412;20.970;2024-03-23T13:04:52;98964.78;;;12.66;100.00
36062;BME280;22123;52.412;20.970;2024-03-23T13:07:19;98956.81;;;12.71;100.00
36062;BME280;22123;52.412;20.970;2024-03-23T13:09:45;98934.00;;;12.67;100.00
36062;BME280;22123;52.412;20.970;2024-03-23T13:12:11;98991.81;;;13.03;100.00
36062;BME280;22123;52.412;20.970;2024-03-23T13:14:38;98982.44;;;13.05;100.00
36062;BME280;22123;52.412;20.970;2024-03-23T13:17:04;98967.94;;;13.00;100.00
36062;BME280;22123;52.412;20.970;2024-03-23T13:19:29;98969.59;;;13.01;100.00
36062;BME280;22123;52.412;20.970;2024-03-23T13:21:55;98936.13;;;12.83;100.00
36062;BME280;22123;52.412;20.970;2024-03-23T13:24:22;98975.31;;;13.11;100.00
36062;BME280;22123;52.412;20.970;2024-03-23T13:26:48;98952.25;;;13.09;100.00
36062;BME280;22123;52.412;20.970;2024-03-23T13:29:14;98931.63;;;12.96;100.00
36062;BME280;22123;52.412;20.970;2024-03-23T13:31:40;98942.13;;;13.04;100.00
36062;BME280;22123;52.412;20.970;2024-03-23T13:34:06;98911.97;;;12.88;100.00
36062;BME280;22123;52.412;20.970;2024-03-23T13:36:32;98916.56;;;13.07;100.00
36062;BME280;22123;52.412;20.970;2024-03-23T13:38:58;98893.69;;;12.91;100.00
36062;BME280;22123;52.412;20.970;2024-03-23T13:41:24;98913.34;;;12.98;100.00
36062;BME280;22123;52.412;20.970;2024-03-23T13:43:50;98915.34;;;13.02;100.00
36062;BME280;22123;52.412;20.970;2024-03-23T13:46:16;98896.59;;;12.89;100.00